Time;durP1;ratioP1;P1;durP2;ratioP2;P2;SDS_P1;SDS_P2;PMS_P1;PMS_P2;Temp;Humidity;BMP_temperature;BMP_pressure;BME280_temperature;BME280_humidity;BME280_pressure;Samples;Min_cycle;Max_cycle;Signal;HPM_P1;HPM_P2
2022/07/15 00:00:08;;;;;;;4.43;2.17;;;13.20;99.90;;;;;;5053573;28;20046;-89
2022/07/15 00:02:34;;;;;;;3.17;1.85;;;13.20;99.90;;;;;;5057343;28;20032;-89
2022/07/15 00:05:00;;;;;;;3.35;2.25;;;13.20;99.90;;;;;;5058036;28;20093;-89
2022/07/15 00:07:26;;;;;;;1.88;1.77;;;13.20;99.90;;;;;;5042174;28;20478;-90
2022/07/15 00:12:36;;;;;;;4.22;2.20;;;13.10;99.90;;;;;;5072539;28;20039;-89
2022/07/15 00:15:02;;;;;;;3.38;2.17;;;13.10;99.90;;;;;;5060478;28;20067;-90
2022/07/15 00:17:28;;;;;;;4.13;2.17;;;13.10;99.90;;;;;;5045448;28;20044;-89
2022/07/15 00:19:54;;;;;;;3.22;2.17;;;13.00;99.90;;;;;;5047914;28;20098;-90
2022/07/15 00:22:20;;;;;;;3.17;1.80;;;13.10;99.90;;;;;;5039640;28;20045;-88
2022/07/15 00:24:46;;;;;;;2.65;2.08;;;13.00;99.90;;;;;;5058068;28;20059;-91
2022/07/15 00:27:13;;;;;;;2.83;1.90;;;13.00;99.90;;;;;;5047407;28;20033;-90
2022/07/15 00:29:39;;;;;;;2.22;1.83;;;13.00;99.90;;;;;;5075452;28;20124;-89
2022/07/15 00:32:05;;;;;;;2.45;2.00;;;12.90;99.90;;;;;;5057763;28;20067;-88
2022/07/15 00:34:30;;;;;;;6.72;2.28;;;12.90;99.90;;;;;;5058909;28;20051;-89
2022/07/15 00:36:56;;;;;;;2.95;1.95;;;12.90;99.90;;;;;;5008365;28;20041;-89
2022/07/15 00:39:22;;;;;;;5.97;2.40;;;12.90;99.90;;;;;;5024714;28;20561;-89
2022/07/15 00:41:48;;;;;;;4.18;2.20;;;12.90;99.90;;;;;;5034221;28;20032;-89
2022/07/15 00:44:14;;;;;;;3.08;2.20;;;12.90;99.90;;;;;;5037545;28;20040;-88
2022/07/15 00:46:41;;;;;;;3.03;2.13;;;12.90;99.90;;;;;;5050901;28;20047;-90
2022/07/15 00:49:08;;;;;;;3.25;2.13;;;12.90;99.90;;;;;;5040750;28;20032;-90
2022/07/15 00:51:43;;;;;;;3.10;2.80;;;12.90;99.90;;;;;;5042050;28;20106;-89
2022/07/15 00:54:14;;;;;;;2.60;2.05;;;12.90;99.90;;;;;;5037919;28;20025;-89
2022/07/15 00:56:46;;;;;;;1.80;1.70;;;12.90;99.90;;;;;;5036809;28;20037;-89
2022/07/15 00:59:13;;;;;;;2.05;1.95;;;12.90;99.90;;;;;;5037645;28;20292;-88
2022/07/15 01:01:42;;;;;;;1.98;1.80;;;12.90;99.90;;;;;;5064156;28;20032;-89
2022/07/15 01:04:09;;;;;;;2.38;2.03;;;12.90;99.90;;;;;;5050963;28;20043;-89
2022/07/15 01:06:35;;;;;;;3.13;1.75;;;12.80;99.90;;;;;;5048168;28;20039;-86
2022/07/15 01:09:01;;;;;;;2.55;1.88;;;12.80;99.90;;;;;;5023055;28;20100;-89
2022/07/15 01:11:30;;;;;;;3.10;2.13;;;12.80;99.90;;;;;;5028064;28;20072;-90
2022/07/15 01:13:58;;;;;;;1.98;1.75;;;12.70;99.90;;;;;;5037310;28;20680;-89
2022/07/15 01:16:26;;;;;;;5.05;2.10;;;12.70;99.90;;;;;;5037360;28;20474;-89
2022/07/15 01:18:52;;;;;;;4.47;2.20;;;12.60;99.90;;;;;;5044885;28;20033;-89
2022/07/15 01:21:19;;;;;;;2.42;1.77;;;12.60;99.90;;;;;;5040661;28;20033;-90
2022/07/15 01:23:46;;;;;;;3.28;2.00;;;12.60;99.90;;;;;;5040738;28;20094;-87
2022/07/15 01:26:27;;;;;;;4.97;3.08;;;12.60;99.90;;;;;;5045044;28;20032;-89
2022/07/15 01:28:53;;;;;;;2.55;2.17;;;12.50;99.90;;;;;;5023745;28;20039;-89
2022/07/15 01:31:21;;;;;;;3.60;2.08;;;12.50;99.90;;;;;;5011577;28;20029;-89
2022/07/15 01:33:47;;;;;;;3.47;1.83;;;12.50;99.90;;;;;;5036884;28;20040;-88
2022/07/15 01:36:13;;;;;;;2.40;1.95;;;12.50;99.90;;;;;;5037112;28;20047;-89
2022/07/15 01:38:44;;;;;;;3.22;2.10;;;12.40;99.90;;;;;;5040569;28;20032;-90
2022/07/15 01:41:10;;;;;;;1.80;1.67;;;12.40;99.90;;;;;;5041888;28;20137;-88
2022/07/15 01:43:36;;;;;;;4.05;1.80;;;12.40;99.90;;;;;;5039822;28;20063;-89
2022/07/15 01:46:02;;;;;;;2.30;2.00;;;12.30;99.90;;;;;;5056734;28;20575;-90
2022/07/15 01:51:53;;;;;;;3.58;1.83;;;12.30;99.90;;;;;;5037547;28;20060;-89
2022/07/15 01:54:19;;;;;;;2.40;1.92;;;12.30;99.90;;;;;;5039557;28;20036;-89
2022/07/15 01:56:46;;;;;;;3.08;1.70;;;12.30;99.90;;;;;;5007572;28;20032;-90
2022/07/15 01:59:12;;;;;;;4.55;2.00;;;12.30;99.90;;;;;;5049489;28;20536;-90
2022/07/15 02:01:39;;;;;;;2.30;1.60;;;12.30;99.90;;;;;;5043321;28;20029;-91
2022/07/15 02:04:12;;;;;;;3.08;1.88;;;12.30;99.90;;;;;;5053731;28;20056;-90
2022/07/15 02:06:38;;;;;;;2.55;1.50;;;12.30;99.90;;;;;;5053069;28;20043;-90
2022/07/15 02:09:05;;;;;;;4.18;2.10;;;12.30;99.90;;;;;;5039710;28;20031;-89
2022/07/15 02:11:36;;;;;;;2.45;1.90;;;12.20;99.90;;;;;;5056708;28;20035;-90
2022/07/15 02:14:02;;;;;;;1.98;1.88;;;12.20;99.90;;;;;;5039198;28;20033;-90
2022/07/15 02:16:33;;;;;;;4.32;1.95;;;12.20;99.90;;;;;;5056101;28;20112;-89
2022/07/15 02:19:01;;;;;;;3.60;1.60;;;12.10;99.90;;;;;;5055608;28;20033;-88
2022/07/15 02:21:28;;;;;;;5.57;2.08;;;12.10;99.90;;;;;;5022846;28;20406;-89
2022/07/15 02:23:55;;;;;;;2.25;1.88;;;12.10;99.90;;;;;;5038875;28;20051;-87
2022/07/15 02:26:21;;;;;;;5.07;1.70;;;12.10;99.90;;;;;;5055898;28;20048;-88
2022/07/15 02:28:47;;;;;;;2.33;1.80;;;12.00;99.90;;;;;;5039280;28;20051;-88
2022/07/15 02:31:13;;;;;;;1.83;1.73;;;12.00;99.90;;;;;;5022796;28;20128;-88
2022/07/15 02:33:41;;;;;;;4.10;2.47;;;11.90;99.90;;;;;;5039089;28;20040;-88
2022/07/15 02:36:09;;;;;;;2.97;2.08;;;11.90;99.90;;;;;;5055610;28;20039;-89
2022/07/15 02:38:35;;;;;;;5.72;2.10;;;11.80;99.90;;;;;;5055206;28;20032;-89
2022/07/15 02:41:02;;;;;;;3.72;3.28;;;11.70;99.90;;;;;;5022839;28;20037;-89
2022/07/15 02:43:29;;;;;;;2.78;2.00;;;11.60;99.90;;;;;;5022626;28;20033;-89
2022/07/15 02:45:56;;;;;;;2.97;2.15;;;11.60;99.90;;;;;;5038955;28;20471;-90
2022/07/15 02:48:23;;;;;;;3.63;2.80;;;11.60;99.90;;;;;;5039192;28;20032;-88
2022/07/15 02:50:50;;;;;;;2.15;1.95;;;11.60;99.90;;;;;;5039091;28;20091;-89
2022/07/15 02:53:18;;;;;;;5.10;2.13;;;11.60;99.90;;;;;;5055551;28;20020;-90
2022/07/15 02:55:44;;;;;;;2.10;1.73;;;11.60;99.90;;;;;;5039110;28;20135;-89
2022/07/15 02:58:10;;;;;;;3.13;2.30;;;11.60;99.90;;;;;;5039809;28;20391;-89
2022/07/15 03:00:38;;;;;;;4.97;1.98;;;11.60;99.90;;;;;;5052790;28;20087;-90
2022/07/15 03:03:04;;;;;;;2.17;1.83;;;11.50;99.90;;;;;;5038552;28;20032;-90
2022/07/15 03:05:32;;;;;;;6.43;1.90;;;11.40;99.90;;;;;;5039606;28;20030;-89
2022/07/15 03:07:58;;;;;;;6.38;2.25;;;11.40;99.90;;;;;;5073024;28;20025;-90
2022/07/15 03:10:24;;;;;;;2.50;2.03;;;11.30;99.90;;;;;;5041853;28;20029;-89
2022/07/15 03:12:50;;;;;;;4.75;2.58;;;11.30;99.90;;;;;;5039224;28;20024;-88
2022/07/15 03:15:17;;;;;;;2.47;1.88;;;11.30;99.90;;;;;;5072278;28;20024;-89
2022/07/15 03:17:43;;;;;;;2.60;2.13;;;11.30;99.90;;;;;;5050302;28;20533;-88
2022/07/15 03:20:10;;;;;;;5.53;2.00;;;11.30;99.90;;;;;;5046929;28;20043;-89
2022/07/15 03:22:42;;;;;;;7.35;2.10;;;11.30;99.90;;;;;;5062441;28;20432;-90
2022/07/15 03:25:08;;;;;;;6.90;1.75;;;11.30;99.90;;;;;;5011645;28;20115;-89
2022/07/15 03:27:35;;;;;;;3.90;1.80;;;11.30;99.90;;;;;;5024862;28;20029;-89
2022/07/15 03:30:05;;;;;;;3.80;2.30;;;11.20;99.90;;;;;;5026061;28;20554;-88
2022/07/15 03:32:31;;;;;;;1.67;1.55;;;11.20;99.90;;;;;;5077826;28;20032;-90
2022/07/15 03:35:10;;;;;;;2.55;1.88;;;11.20;99.90;;;;;;5049782;28;20441;-89
2022/07/15 03:37:40;;;;;;;2.15;1.95;;;11.20;99.90;;;;;;5068722;28;20038;-88
2022/07/15 03:40:06;;;;;;;2.33;1.92;;;11.10;99.90;;;;;;5052041;28;20041;-91
2022/07/15 03:42:35;;;;;;;3.13;1.70;;;11.20;99.90;;;;;;5062449;28;20044;-89
2022/07/15 03:45:01;;;;;;;2.53;2.00;;;11.10;99.90;;;;;;5044618;28;20040;-90
2022/07/15 03:47:29;;;;;;;3.40;1.80;;;11.10;99.90;;;;;;5029173;28;20029;-90
2022/07/15 03:49:55;;;;;;;4.60;2.20;;;11.20;99.90;;;;;;5048532;28;20028;-90
2022/07/15 03:52:21;;;;;;;3.13;1.83;;;11.10;99.90;;;;;;5061745;28;20028;-89
2022/07/15 03:54:47;;;;;;;4.70;3.05;;;11.20;99.90;;;;;;5061412;28;20032;-90
2022/07/15 03:57:13;;;;;;;3.10;1.80;;;11.20;99.90;;;;;;5044050;28;20375;-90
2022/07/15 03:59:39;;;;;;;4.32;1.75;;;11.10;99.90;;;;;;5038773;28;20033;-90
2022/07/15 04:02:05;;;;;;;2.35;1.77;;;11.10;99.90;;;;;;5067042;28;20196;-91
2022/07/15 04:04:31;;;;;;;3.05;2.10;;;11.10;99.90;;;;;;5043218;28;20576;-90
2022/07/15 04:06:57;;;;;;;2.30;1.88;;;11.10;99.90;;;;;;5042493;28;20031;-90
2022/07/15 04:09:23;;;;;;;1.98;1.88;;;11.10;99.90;;;;;;5042079;28;20028;-90
2022/07/15 04:11:49;;;;;;;2.45;1.63;;;11.10;99.90;;;;;;5042636;28;20082;-87
2022/07/15 04:14:17;;;;;;;1.80;1.67;;;11.10;99.90;;;;;;5043038;28;20029;-91
2022/07/15 04:16:44;;;;;;;2.35;2.05;;;11.20;99.90;;;;;;5042725;28;20169;-88
2022/07/15 04:19:25;;;;;;;3.35;1.50;;;11.20;99.90;;;;;;5069092;28;20052;-90
2022/07/15 04:21:55;;;;;;;2.10;1.90;;;11.20;99.90;;;;;;5042893;28;20036;-88
2022/07/15 04:24:21;;;;;;;3.65;2.20;;;11.20;99.90;;;;;;5043235;28;20036;-90
2022/07/15 04:26:47;;;;;;;4.85;2.10;;;11.30;99.90;;;;;;5042781;28;20039;-90
2022/07/15 04:29:15;;;;;;;3.35;1.92;;;11.30;99.90;;;;;;5025942;28;20029;-89
2022/07/15 04:31:41;;;;;;;3.80;2.10;;;11.30;99.90;;;;;;5007410;28;20033;-87
2022/07/15 04:34:13;;;;;;;3.05;2.22;;;11.30;99.90;;;;;;5040764;28;20052;-90
2022/07/15 04:36:42;;;;;;;5.00;1.88;;;11.40;99.90;;;;;;5023776;28;20032;-88
2022/07/15 04:39:09;;;;;;;2.58;2.38;;;11.50;99.90;;;;;;5022509;28;20033;-89
2022/07/15 04:41:35;;;;;;;4.13;2.20;;;11.50;99.90;;;;;;5019611;28;20043;-89
2022/07/15 04:44:03;;;;;;;3.08;2.15;;;11.60;99.90;;;;;;5003380;28;20115;-89
2022/07/15 04:46:31;;;;;;;6.20;2.83;;;11.60;99.90;;;;;;5040986;28;20051;-88
2022/07/15 04:51:58;;;;;;;3.67;2.08;;;11.80;99.90;;;;;;5040760;28;20111;-88
2022/07/15 04:54:25;;;;;;;3.97;2.28;;;11.80;99.90;;;;;;5037954;28;20039;-90
2022/07/15 04:56:50;;;;;;;4.20;2.22;;;11.90;99.90;;;;;;5038962;28;20037;-87
2022/07/15 04:59:17;;;;;;;5.45;1.65;;;12.00;99.90;;;;;;5022187;28;20043;-89
2022/07/15 05:01:43;;;;;;;1.83;1.60;;;12.00;99.90;;;;;;5023110;28;20039;-89
2022/07/15 05:04:11;;;;;;;2.20;1.98;;;12.00;99.90;;;;;;5055749;28;20056;-89
2022/07/15 05:06:37;;;;;;;2.45;1.92;;;12.10;99.90;;;;;;5058547;28;20113;-91
2022/07/15 05:09:03;;;;;;;3.00;1.70;;;12.20;99.90;;;;;;5039018;28;20075;-90
2022/07/15 05:11:33;;;;;;;1.67;1.58;;;12.20;99.90;;;;;;5029408;28;20048;-89
2022/07/15 05:13:59;;;;;;;1.90;1.80;;;12.30;99.90;;;;;;5039804;28;20028;-90
2022/07/15 05:16:24;;;;;;;3.50;1.88;;;12.40;99.90;;;;;;5039641;28;20037;-90
2022/07/15 05:18:50;;;;;;;2.20;2.00;;;12.50;99.90;;;;;;5039449;28;20028;-90
2022/07/15 05:21:18;;;;;;;2.10;1.65;;;12.50;99.90;;;;;;5040275;28;20035;-90
2022/07/15 05:23:45;;;;;;;1.95;1.85;;;12.60;99.90;;;;;;5027829;28;20395;-90
2022/07/15 05:26:11;;;;;;;4.03;2.20;;;12.70;99.90;;;;;;5032503;28;20123;-90
2022/07/15 05:28:40;;;;;;;3.63;2.00;;;12.80;99.90;;;;;;5039958;28;20398;-92
2022/07/15 05:31:07;;;;;;;3.72;2.25;;;12.90;99.90;;;;;;5055795;28;20028;-91
2022/07/15 05:33:34;;;;;;;4.53;2.90;;;13.00;99.90;;;;;;5056416;28;20057;-91
2022/07/15 05:36:04;;;;;;;3.22;2.85;;;13.20;99.90;;;;;;5056946;28;20040;-91
2022/07/15 05:38:31;;;;;;;4.72;3.13;;;13.30;99.90;;;;;;5056475;28;20115;-91
2022/07/15 05:40:58;;;;;;;5.28;3.35;;;13.60;99.90;;;;;;5055938;28;20070;-90
2022/07/15 05:43:26;;;;;;;4.60;3.25;;;13.90;99.90;;;;;;5071874;28;20021;-92
2022/07/15 05:45:52;;;;;;;4.35;3.72;;;14.30;99.90;;;;;;5072386;28;20054;-90
2022/07/15 05:48:19;;;;;;;5.95;2.75;;;14.60;99.90;;;;;;5056070;28;20032;-92
2022/07/15 05:50:50;;;;;;;3.60;2.70;;;15.10;99.90;;;;;;5057944;28;20024;-93
2022/07/15 05:53:16;;;;;;;8.82;3.08;;;15.50;99.90;;;;;;5058373;28;20111;-92
2022/07/15 05:55:43;;;;;;;4.43;2.55;;;15.70;99.90;;;;;;5056219;28;20494;-92
2022/07/15 05:58:16;;;;;;;2.65;2.15;;;15.70;99.90;;;;;;5040241;28;20057;-92
2022/07/15 06:00:42;;;;;;;2.40;2.20;;;15.70;99.90;;;;;;5041283;28;20105;-93
2022/07/15 06:03:09;;;;;;;4.57;2.80;;;15.60;99.90;;;;;;5043911;28;20023;-94
2022/07/15 06:05:44;;;;;;;2.80;2.60;;;15.50;99.90;;;;;;5075416;28;20036;-96
2022/07/15 06:08:19;;;;;;;3.38;2.75;;;15.40;99.90;;;;;;5059233;28;20028;-92
2022/07/15 06:10:46;;;;;;;5.22;3.15;;;15.30;99.90;;;;;;5056896;28;20033;-90
2022/07/15 06:13:20;;;;;;;4.47;2.50;;;15.30;99.90;;;;;;5056233;28;20471;-92
2022/07/15 06:15:49;;;;;;;2.85;2.60;;;15.20;99.90;;;;;;5053935;28;20028;-91
2022/07/15 06:18:19;;;;;;;2.75;2.47;;;15.10;99.90;;;;;;5056229;28;20036;-91
2022/07/15 06:20:45;;;;;;;7.00;2.80;;;15.00;99.90;;;;;;5055041;28;20032;-90
2022/07/15 06:23:23;;;;;;;2.47;2.28;;;15.00;99.90;;;;;;5055173;28;20032;-91
2022/07/15 06:25:55;;;;;;;6.50;2.97;;;15.00;99.90;;;;;;5037937;28;20411;-92
2022/07/15 06:28:21;;;;;;;3.10;2.20;;;15.00;99.90;;;;;;5050823;28;20037;-90
2022/07/15 06:30:47;;;;;;;3.83;2.63;;;15.10;99.90;;;;;;5065056;28;20028;-90
2022/07/15 06:33:13;;;;;;;3.53;2.63;;;15.30;99.90;;;;;;5038078;28;20036;-92
2022/07/15 06:35:41;;;;;;;4.28;2.35;;;15.50;99.90;;;;;;5072460;28;20027;-90
2022/07/15 06:38:10;;;;;;;2.70;2.38;;;15.70;99.90;;;;;;5071743;28;20078;-92
2022/07/15 06:40:36;;;;;;;3.53;1.92;;;15.80;99.90;;;;;;5071351;28;20021;-91
2022/07/15 06:43:02;;;;;;;2.47;2.22;;;15.90;99.90;;;;;;5054096;28;20082;-91
2022/07/15 06:45:47;;;;;;;3.95;2.40;;;16.10;99.90;;;;;;5069677;28;20395;-91
2022/07/15 06:48:12;;;;;;;2.97;1.90;;;16.30;99.90;;;;;;5018022;28;20037;-91
2022/07/15 06:50:38;;;;;;;4.35;2.30;;;16.40;99.90;;;;;;5077964;28;20013;-91
2022/07/15 06:53:04;;;;;;;3.00;2.17;;;16.50;99.90;;;;;;5048781;28;20020;-89
2022/07/15 06:55:30;;;;;;;2.55;2.30;;;16.40;99.90;;;;;;5020372;28;20039;-88
2022/07/15 06:57:57;;;;;;;2.80;2.30;;;16.40;99.90;;;;;;5017045;28;20392;-90
2022/07/15 07:00:23;;;;;;;4.45;2.75;;;16.30;99.90;;;;;;5069876;28;20028;-90
2022/07/15 07:02:49;;;;;;;5.18;2.58;;;16.40;99.90;;;;;;5036741;28;20029;-91
2022/07/15 07:05:16;;;;;;;5.30;3.25;;;16.40;99.90;;;;;;5070313;28;20036;-90
2022/07/15 07:07:42;;;;;;;3.28;2.70;;;16.50;99.90;;;;;;5059847;28;20390;-90
2022/07/15 07:10:08;;;;;;;2.92;2.60;;;16.60;99.90;;;;;;5053506;28;20031;-89
2022/07/15 07:12:35;;;;;;;3.85;2.15;;;16.70;99.90;;;;;;5049942;28;20128;-90
2022/07/15 07:15:02;;;;;;;2.90;2.33;;;17.10;99.90;;;;;;5053337;28;20043;-88
2022/07/15 07:17:28;;;;;;;3.20;2.08;;;17.40;99.90;;;;;;5053476;28;20041;-89
2022/07/15 07:19:55;;;;;;;3.38;2.38;;;17.60;99.90;;;;;;5052984;28;20426;-88
2022/07/15 07:22:21;;;;;;;3.58;2.15;;;17.80;99.90;;;;;;5061935;28;20059;-89
2022/07/15 07:24:47;;;;;;;3.53;1.50;;;17.90;99.90;;;;;;5054815;28;20391;-88
2022/07/15 07:27:14;;;;;;;2.15;1.48;;;17.90;99.90;;;;;;5067307;28;20032;-88
2022/07/15 07:29:40;;;;;;;2.95;1.67;;;17.90;99.90;;;;;;5061791;28;20028;-88
2022/07/15 07:32:06;;;;;;;2.40;1.30;;;18.40;99.90;;;;;;5039340;28;20147;-88
2022/07/15 07:34:32;;;;;;;5.50;1.40;;;18.70;99.90;;;;;;5037057;28;20061;-87
2022/07/15 07:36:58;;;;;;;4.47;1.77;;;19.10;99.90;;;;;;5035340;28;20043;-87
2022/07/15 07:39:24;;;;;;;1.60;0.98;;;19.60;99.90;;;;;;5044117;28;20114;-88
2022/07/15 07:41:53;;;;;;;6.93;1.20;;;19.60;99.90;;;;;;5040063;28;20032;-89
2022/07/15 07:44:19;;;;;;;6.85;1.73;;;19.10;99.60;;;;;;5045210;28;20037;-87
2022/07/15 07:46:46;;;;;;;2.10;1.27;;;18.50;99.90;;;;;;5041489;28;20474;-88
2022/07/15 07:49:15;;;;;;;2.67;1.20;;;18.30;99.90;;;;;;5045882;28;20230;-89
2022/07/15 07:51:41;;;;;;;4.35;1.25;;;18.20;99.90;;;;;;5040393;28;20036;-89
2022/07/15 07:54:08;;;;;;;1.63;1.25;;;18.20;99.90;;;;;;5059196;28;20028;-89
2022/07/15 07:56:35;;;;;;;2.70;1.55;;;18.40;99.90;;;;;;5057838;28;20043;-87
2022/07/15 07:59:01;;;;;;;1.38;0.88;;;18.50;99.90;;;;;;5047632;28;20037;-89
2022/07/15 08:01:26;;;;;;;2.03;0.98;;;18.50;99.90;;;;;;5021254;28;20079;-88
2022/07/15 08:03:52;;;;;;;2.22;0.93;;;18.50;99.90;;;;;;5036760;28;20108;-89
2022/07/15 08:06:18;;;;;;;9.13;3.05;;;18.50;99.90;;;;;;5055993;28;20016;-89
2022/07/15 08:08:45;;;;;;;6.53;1.60;;;18.40;99.90;;;;;;5042295;28;20037;-88
2022/07/15 08:11:11;;;;;;;2.67;1.15;;;18.20;99.90;;;;;;5039293;28;20033;-88
2022/07/15 08:13:37;;;;;;;2.10;1.00;;;17.80;99.90;;;;;;5021928;28;20040;-89
2022/07/15 08:16:03;;;;;;;3.90;0.98;;;17.80;99.90;;;;;;5038249;28;20097;-89
2022/07/15 08:18:29;;;;;;;2.13;0.90;;;17.80;99.90;;;;;;5037129;28;20036;-88
2022/07/15 08:20:54;;;;;;;1.45;0.93;;;17.80;99.90;;;;;;5020830;28;20025;-89
2022/07/15 08:23:22;;;;;;;1.52;1.10;;;17.80;99.90;;;;;;5037243;28;20484;-91
2022/07/15 08:25:50;;;;;;;1.27;1.17;;;17.90;99.90;;;;;;5054300;28;20036;-89
2022/07/15 08:28:17;;;;;;;1.60;1.17;;;18.00;99.90;;;;;;5055634;28;20067;-88
2022/07/15 08:30:44;;;;;;;1.77;1.02;;;18.30;99.90;;;;;;5022618;28;20056;-89
2022/07/15 08:33:10;;;;;;;2.08;0.98;;;18.60;99.90;;;;;;5010520;28;20041;-88
2022/07/15 08:35:36;;;;;;;3.95;1.05;;;18.80;99.90;;;;;;5005937;28;20127;-89
2022/07/15 08:38:06;;;;;;;4.10;1.00;;;18.90;99.90;;;;;;5023607;28;20029;-89
2022/07/15 08:40:33;;;;;;;2.25;0.85;;;19.00;99.90;;;;;;5008840;28;20063;-89
2022/07/15 08:42:59;;;;;;;1.10;1.00;;;19.20;99.90;;;;;;5025972;28;20632;-88
2022/07/15 08:45:26;;;;;;;1.70;1.02;;;19.50;99.90;;;;;;5044104;28;20126;-88
2022/07/15 08:47:52;;;;;;;2.63;1.02;;;19.70;99.90;;;;;;5058999;28;20052;-88
2022/07/15 08:50:19;;;;;;;3.15;0.80;;;19.70;99.90;;;;;;5058310;28;20480;-87
2022/07/15 08:52:46;;;;;;;1.17;0.90;;;19.80;99.90;;;;;;5057198;28;20048;-87
2022/07/15 08:55:15;;;;;;;1.50;0.82;;;19.80;99.90;;;;;;5024888;28;20108;-88
2022/07/15 08:57:49;;;;;;;1.25;0.90;;;19.90;99.90;;;;;;5027270;28;20059;-88
2022/07/15 09:00:16;;;;;;;1.70;1.10;;;19.90;99.90;;;;;;5057492;28;20510;-89
2022/07/15 09:02:43;;;;;;;4.55;0.98;;;19.70;96.40;;;;;;5065923;28;20037;-88
2022/07/15 09:05:18;;;;;;;1.83;1.08;;;19.60;98.90;;;;;;5050367;28;20036;-89
2022/07/15 09:07:54;;;;;;;1.90;1.13;;;19.80;99.90;;;;;;5039560;28;20033;-90
2022/07/15 09:10:41;;;;;;;2.60;1.25;;;20.00;99.90;;;;;;5056179;28;20037;-88
2022/07/15 09:13:08;;;;;;;6.32;1.23;;;20.10;96.80;;;;;;5045073;28;20447;-88
2022/07/15 09:15:35;;;;;;;4.57;1.17;;;20.00;96.90;;;;;;5045991;28;20124;-88
2022/07/15 09:18:17;;;;;;;3.08;1.30;;;19.80;95.40;;;;;;5043235;28;20073;-88
2022/07/15 09:20:44;;;;;;;1.60;0.90;;;19.60;95.20;;;;;;5060030;28;20501;-89
2022/07/15 09:23:16;;;;;;;2.88;1.10;;;19.40;98.20;;;;;;5044195;28;20040;-88
2022/07/15 09:25:42;;;;;;;1.88;1.00;;;19.40;99.90;;;;;;5057886;28;20063;-88
2022/07/15 09:28:08;;;;;;;1.83;1.13;;;19.70;99.90;;;;;;5045524;28;20032;-88
2022/07/15 09:33:38;;;;;;;2.00;0.90;;;19.90;99.90;;;;;;5024636;28;20029;-89
2022/07/15 09:36:20;;;;;;;1.60;0.80;;;20.00;99.90;;;;;;5035756;28;20032;-90
2022/07/15 09:38:48;;;;;;;4.45;1.00;;;20.10;99.90;;;;;;5035992;28;20025;-90
2022/07/15 09:41:27;;;;;;;1.85;1.00;;;20.10;99.90;;;;;;5022616;28;20033;-89
2022/07/15 09:44:12;;;;;;;2.67;0.90;;;20.30;99.90;;;;;;5037643;28;20187;-88
2022/07/15 09:46:50;;;;;;;1.02;0.75;;;20.30;99.90;;;;;;5065298;28;20031;-88
2022/07/15 09:49:25;;;;;;;1.00;1.00;;;20.20;99.90;;;;;;5082968;28;20020;-89
2022/07/15 09:52:07;;;;;;;1.63;0.90;;;20.10;99.90;;;;;;5056047;28;20020;-89
2022/07/15 09:54:35;;;;;;;2.08;0.90;;;20.10;99.90;;;;;;5040186;28;20036;-89
2022/07/15 09:57:04;;;;;;;1.45;0.90;;;20.10;99.90;;;;;;5069113;28;20125;-90
2022/07/15 09:59:30;;;;;;;1.35;0.70;;;20.20;99.90;;;;;;5056155;28;20041;-89
2022/07/15 10:01:57;;;;;;;0.98;0.85;;;20.30;99.90;;;;;;5051369;28;20053;-89
2022/07/15 10:04:25;;;;;;;2.83;0.85;;;20.40;99.90;;;;;;5054766;28;20048;-88
2022/07/15 10:06:53;;;;;;;3.50;1.45;;;20.50;99.90;;;;;;5059155;28;20486;-89
2022/07/15 10:09:24;;;;;;;0.80;0.80;;;20.60;92.80;;;;;;5054628;28;20553;-88
2022/07/15 10:11:53;;;;;;;2.03;1.00;;;20.70;97.80;;;;;;5023352;28;20082;-88
2022/07/15 10:14:55;;;;;;;2.28;0.90;;;20.90;99.90;;;;;;5054081;28;20032;-90
2022/07/15 10:17:29;;;;;;;3.50;0.90;;;21.10;91.90;;;;;;5051197;28;20541;-89
2022/07/15 10:20:23;;;;;;;0.70;0.63;;;21.20;94.40;;;;;;5054540;28;20051;-90
2022/07/15 10:22:59;;;;;;;1.80;1.00;;;21.20;93.40;;;;;;5017992;28;20530;-88
2022/07/15 10:26:04;;;;;;;3.38;1.00;;;21.20;94.10;;;;;;5021580;28;20029;-88
2022/07/15 10:28:36;;;;;;;1.20;1.08;;;21.20;95.70;;;;;;5054760;28;20041;-87
2022/07/15 10:31:28;;;;;;;1.98;1.00;;;21.30;96.00;;;;;;5052793;28;20403;-87
2022/07/15 10:34:03;;;;;;;1.48;0.60;;;21.30;92.90;;;;;;5050890;28;20037;-88
2022/07/15 10:36:47;;;;;;;1.00;0.90;;;21.30;92.10;;;;;;5049479;28;20486;-87
2022/07/15 10:39:14;;;;;;;2.13;1.13;;;21.30;92.40;;;;;;5036607;28;20032;-88
2022/07/15 10:41:58;;;;;;;1.98;0.90;;;21.30;92.80;;;;;;5035688;28;20036;-88
2022/07/15 10:44:26;;;;;;;3.60;0.90;;;21.40;94.10;;;;;;5035437;28;20036;-89
2022/07/15 10:47:13;;;;;;;3.90;0.90;;;21.40;94.60;;;;;;5051081;28;20025;-89
2022/07/15 10:49:41;;;;;;;23.00;11.00;;;21.50;96.30;;;;;;5051081;28;20037;-86
2022/07/15 10:52:25;;;;;;;1.65;1.25;;;21.40;94.80;;;;;;5034314;28;20029;-88
2022/07/15 10:54:59;;;;;;;4.10;1.10;;;21.30;95.20;;;;;;5050261;28;20094;-89
2022/07/15 10:57:44;;;;;;;3.47;1.23;;;21.40;94.20;;;;;;5051759;28;20024;-88
2022/07/15 11:00:24;;;;;;;1.45;0.98;;;21.40;95.30;;;;;;5050331;28;20031;-86
2022/07/15 11:03:04;;;;;;;1.85;1.02;;;21.60;96.10;;;;;;5049451;28;20042;-89
2022/07/15 11:05:30;;;;;;;3.17;1.10;;;21.80;87.00;;;;;;5068287;28;20044;-86
2022/07/15 11:07:55;;;;;;;1.98;0.95;;;21.80;82.60;;;;;;5034543;28;20024;-88
2022/07/15 11:10:22;;;;;;;1.75;1.05;;;21.80;91.90;;;;;;5042601;28;20028;-88
2022/07/15 11:12:48;;;;;;;1.60;0.90;;;21.70;92.80;;;;;;5052808;28;20029;-91
2022/07/15 11:15:18;;;;;;;1.63;0.90;;;21.80;84.70;;;;;;5053134;28;20038;-88
2022/07/15 11:17:50;;;;;;;2.33;0.90;;;21.90;85.70;;;;;;5019468;28;20124;-88
2022/07/15 11:20:21;;;;;;;1.15;0.75;;;22.10;87.50;;;;;;5031486;28;20021;-88
2022/07/15 11:22:52;;;;;;;3.00;0.93;;;22.20;88.50;;;;;;5015203;28;20103;-90
2022/07/15 11:25:34;;;;;;;1.02;0.98;;;22.40;90.40;;;;;;5031684;28;20029;-90
2022/07/15 11:28:04;;;;;;;1.90;1.00;;;22.50;83.50;;;;;;5046757;28;20782;-91
2022/07/15 11:30:44;;;;;;;1.55;0.85;;;22.50;82.20;;;;;;5031671;28;20029;-91
2022/07/15 11:33:17;;;;;;;1.42;0.80;;;22.70;82.00;;;;;;5048068;28;20021;-89
2022/07/15 11:35:48;;;;;;;1.00;0.80;;;22.70;79.40;;;;;;5047176;28;20040;-90
2022/07/15 11:38:14;;;;;;;1.05;0.85;;;22.80;84.40;;;;;;5046880;28;20036;-89
2022/07/15 11:46:18;;;;;;;1.38;0.80;;;22.50;77.10;;;;;;5036406;28;20167;-90
2022/07/15 11:48:47;;;;;;;4.32;1.20;;;22.40;82.90;;;;;;5053142;28;20053;-91
2022/07/15 11:51:13;;;;;;;1.52;1.00;;;22.20;83.30;;;;;;5046204;28;20186;-91
2022/07/15 11:53:47;;;;;;;1.10;1.00;;;22.20;85.10;;;;;;5058324;28;20048;-89
2022/07/15 11:56:14;;;;;;;3.73;0.90;;;22.10;86.00;;;;;;5036692;28;20406;-88
2022/07/15 11:58:53;;;;;;;1.90;1.15;;;22.00;81.50;;;;;;5018287;28;20035;-90
2022/07/15 12:01:28;;;;;;;1.30;0.90;;;21.90;78.60;;;;;;5051209;28;20545;-89
2022/07/15 12:03:55;;;;;;;4.47;0.98;;;21.90;84.20;;;;;;5057401;28;20491;-89
2022/07/15 12:06:24;;;;;;;0.85;0.75;;;21.80;80.60;;;;;;5005410;28;20025;-90
2022/07/15 12:08:55;;;;;;;2.30;1.17;;;22.00;85.90;;;;;;5056632;28;20532;-90
2022/07/15 12:11:22;;;;;;;1.98;0.90;;;22.20;83.20;;;;;;5054658;28;20028;-89
2022/07/15 12:13:54;;;;;;;2.70;0.80;;;22.20;86.10;;;;;;5053245;28;20044;-88
2022/07/15 12:16:25;;;;;;;1.83;1.00;;;22.30;85.70;;;;;;5051031;28;20109;-90
2022/07/15 12:18:56;;;;;;;1.75;0.90;;;22.20;76.20;;;;;;5035077;28;20033;-91
2022/07/15 12:21:23;;;;;;;1.33;1.00;;;22.20;79.80;;;;;;5051822;28;20392;-90
2022/07/15 12:24:05;;;;;;;2.92;1.10;;;22.30;82.60;;;;;;5061918;28;20398;-92
2022/07/15 12:26:33;;;;;;;6.22;0.75;;;22.40;76.20;;;;;;5052336;28;20658;-89
2022/07/15 12:29:01;;;;;;;1.58;1.08;;;22.40;74.40;;;;;;5037677;28;20498;-91
2022/07/15 12:31:32;;;;;;;1.73;0.95;;;22.40;75.80;;;;;;5054343;28;20110;-90
2022/07/15 12:33:59;;;;;;;3.90;1.10;;;22.50;79.10;;;;;;5034658;28;20070;-88
2022/07/15 12:36:27;;;;;;;1.10;0.77;;;22.90;80.70;;;;;;5028346;28;20037;-88
2022/07/15 12:39:13;;;;;;;3.72;0.90;;;23.30;74.90;;;;;;5035437;28;20036;-90
2022/07/15 12:41:41;;;;;;;2.78;0.93;;;23.70;79.60;;;;;;5024137;28;20086;-89
2022/07/15 12:44:09;;;;;;;6.22;1.20;;;24.10;83.80;;;;;;5037427;28;20509;-90
2022/07/15 12:46:53;;;;;;;1.15;0.70;;;24.30;68.50;;;;;;5020416;28;20033;-89
2022/07/15 12:49:42;;;;;;;1.92;1.10;;;24.20;75.60;;;;;;5051911;28;20025;-89
2022/07/15 12:52:32;;;;;;;1.45;1.05;;;24.40;66.10;;;;;;5050903;28;20437;-90
2022/07/15 12:55:12;;;;;;;2.10;0.88;;;24.50;67.00;;;;;;5040702;28;20035;-88
2022/07/15 12:57:39;;;;;;;2.15;0.77;;;24.60;66.80;;;;;;5049680;28;20033;-90
2022/07/15 13:00:16;;;;;;;1.38;0.98;;;24.90;72.50;;;;;;5062156;28;20036;-90
2022/07/15 13:03:05;;;;;;;0.80;0.80;;;25.00;71.60;;;;;;5060387;28;20033;-90
2022/07/15 13:05:50;;;;;;;1.77;1.00;;;25.20;70.30;;;;;;5053084;28;20090;-89
2022/07/15 13:08:25;;;;;;;1.30;0.90;;;25.20;70.90;;;;;;5034777;28;20483;-90
2022/07/15 13:10:54;;;;;;;0.82;0.70;;;25.30;58.90;;;;;;5043877;28;20059;-90
2022/07/15 13:13:23;;;;;;;1.50;0.88;;;25.30;68.30;;;;;;5052576;28;20028;-92
2022/07/15 13:15:50;;;;;;;1.95;0.70;;;25.30;71.40;;;;;;5060052;28;20024;-91